Time,TemperatureF,DewpointF,PressureIn,WindDirection,WindDirectionDegrees,WindSpeedMPH,WindSpeedGustMPH,Humidity,HourlyPrecipIn,Conditions,Clouds,dailyrainin,SoftwareType,DateUTC
2013-01-10 00:00:00,71.3,68.2,30.30,ESE,117,0.0,0.0,90,0.00,,,0.00,Wunderground v.1.15,2013-01-10 05:00:00,
2013-01-10 00:03:00,71.3,68.5,30.30,ESE,117,0.0,4.0,91,0.00,,,0.00,Wunderground v.1.15,2013-01-10 05:03:00,
2013-01-10 00:06:00,71.3,68.5,30.30,ESE,117,0.0,4.0,91,0.00,,,0.00,Wunderground v.1.15,2013-01-10 05:06:00,
2013-01-10 00:12:00,71.1,68.3,30.30,ESE,117,0.0,0.0,91,0.00,,,0.00,Wunderground v.1.15,2013-01-10 05:12:00,
2013-01-10 00:17:00,71.1,68.3,30.30,ESE,117,0.0,0.0,91,0.00,,,0.00,Wunderground v.1.15,2013-01-10 05:17:00,
2013-01-10 00:23:00,70.9,68.1,30.30,ESE,117,0.0,0.0,91,0.00,,,0.00,Wunderground v.1.15,2013-01-10 05:23:00,
2013-01-10 00:28:00,70.9,68.5,30.30,ESE,117,0.0,0.0,92,0.00,,,0.00,Wunderground v.1.15,2013-01-10 05:28:00,
2013-01-10 00:34:00,70.8,68.4,30.30,ESE,117,0.0,0.0,92,0.00,,,0.00,Wunderground v.1.15,2013-01-10 05:34:00,
2013-01-10 00:39:00,70.7,68.3,30.30,ESE,117,0.0,0.0,92,0.00,,,0.00,Wunderground v.1.15,2013-01-10 05:39:00,
2013-01-10 00:45:00,70.7,68.6,30.30,ESE,112,0.0,2.0,93,0.00,,,0.00,Wunderground v.1.15,2013-01-10 05:45:00,
2013-01-10 00:50:00,70.6,68.5,30.30,ESE,112,0.0,0.0,93,0.00,,,0.00,Wunderground v.1.15,2013-01-10 05:50:00,
2013-01-10 00:56:00,70.6,68.5,30.30,ESE,111,0.0,0.0,93,0.00,,,0.00,Wunderground v.1.15,2013-01-10 05:56:00,
2013-01-10 01:01:00,70.5,68.4,30.30,ESE,111,0.0,1.0,93,0.00,,,0.00,Wunderground v.1.15,2013-01-10 06:01:00,
2013-01-10 01:07:00,70.4,68.3,30.30,ESE,111,0.0,1.0,93,0.00,,,0.00,Wunderground v.1.15,2013-01-10 06:07:00,
2013-01-10 01:12:00,70.3,68.2,30.30,ESE,112,0.0,0.0,93,0.00,,,0.00,Wunderground v.1.15,2013-01-10 06:12:00,
2013-01-10 01:18:00,70.3,68.5,30.30,ESE,111,0.0,0.0,94,0.00,,,0.00,Wunderground v.1.15,2013-01-10 06:18:00,
2013-01-10 01:24:00,70.3,68.5,30.30,ESE,111,0.0,0.0,94,0.00,,,0.00,Wunderground v.1.15,2013-01-10 06:24:00,
2013-01-10 01:29:00,70.4,68.6,30.30,ESE,111,0.0,0.0,94,0.00,,,0.00,Wunderground v.1.15,2013-01-10 06:29:00,
2013-01-10 01:34:00,70.4,68.6,30.29,ESE,111,0.0,0.0,94,0.00,,,0.00,Wunderground v.1.15,2013-01-10 06:34:00,
2013-01-10 01:40:00,70.4,68.6,30.29,East,98,0.0,1.0,94,0.00,,,0.00,Wunderground v.1.15,2013-01-10 06:40:00,
2013-01-10 01:46:00,70.4,68.6,30.29,ESE,109,1.0,3.0,94,0.00,,,0.00,Wunderground v.1.15,2013-01-10 06:46:00,
2013-01-10 01:52:00,70.3,68.5,30.29,East,96,1.0,2.0,94,0.00,,,0.00,Wunderground v.1.15,2013-01-10 06:52:00,
2013-01-10 01:58:00,70.3,68.5,30.29,East,96,0.0,3.0,94,0.00,,,0.00,Wunderground v.1.15,2013-01-10 06:58:00,
2013-01-10 02:03:00,70.2,68.4,30.29,East,98,0.0,2.0,94,0.00,,,0.00,Wunderground v.1.15,2013-01-10 07:03:00,
2013-01-10 02:09:00,70.2,68.4,30.29,ESE,113,0.0,2.0,94,0.00,,,0.00,Wunderground v.1.15,2013-01-10 07:09:00,
2013-01-10 02:14:00,70.2,68.4,30.28,ESE,117,1.0,2.0,94,0.00,,,0.00,Wunderground v.1.15,2013-01-10 07:14:00,
2013-01-10 02:20:00,70.2,68.4,30.29,East,86,2.0,2.0,94,0.00,,,0.00,Wunderground v.1.15,2013-01-10 07:20:00,
2013-01-10 02:25:00,70.3,68.5,30.28,ESE,118,2.0,3.0,94,0.00,,,0.00,Wunderground v.1.15,2013-01-10 07:25:00,
2013-01-10 02:31:00,70.3,68.5,30.28,ENE,63,2.0,3.0,94,0.00,,,0.00,Wunderground v.1.15,2013-01-10 07:31:00,
2013-01-10 02:36:00,70.3,68.5,30.28,SE,127,1.0,3.0,94,0.00,,,0.00,Wunderground v.1.15,2013-01-10 07:36:00,
2013-01-10 02:42:00,70.3,68.5,30.28,East,98,1.0,2.0,94,0.00,,,0.00,Wunderground v.1.15,2013-01-10 07:42:00,
2013-01-10 02:47:00,70.4,68.6,30.28,ESE,112,1.0,4.0,94,0.00,,,0.00,Wunderground v.1.15,2013-01-10 07:47:00,
2013-01-10 02:53:00,70.4,68.6,30.28,ESE,122,1.0,1.0,94,0.00,,,0.00,Wunderground v.1.15,2013-01-10 07:53:00,
2013-01-10 02:58:00,70.3,68.5,30.28,ESE,121,0.0,3.0,94,0.00,,,0.00,Wunderground v.1.15,2013-01-10 07:58:00,
2013-01-10 03:03:00,70.3,68.5,30.28,ESE,119,1.0,3.0,94,0.00,,,0.00,Wunderground v.1.15,2013-01-10 08:03:00,
2013-01-10 03:09:00,70.3,68.5,30.28,ESE,119,1.0,3.0,94,0.00,,,0.00,Wunderground v.1.15,2013-01-10 08:09:00,
2013-01-10 03:15:00,70.3,68.5,30.28,ESE,120,1.0,3.0,94,0.00,,,0.00,Wunderground v.1.15,2013-01-10 08:15:00,
2013-01-10 03:20:00,70.3,68.5,30.28,ESE,120,1.0,3.0,94,0.00,,,0.00,Wunderground v.1.15,2013-01-10 08:20:00,
2013-01-10 03:25:00,70.2,68.4,30.28,ESE,106,1.0,3.0,94,0.00,,,0.00,Wunderground v.1.15,2013-01-10 08:25:00,
2013-01-10 03:31:00,70.2,68.4,30.28,East,97,0.0,1.0,94,0.00,,,0.00,Wunderground v.1.15,2013-01-10 08:31:00,
2013-01-10 03:37:00,70.2,68.4,30.28,East,97,0.0,1.0,94,0.00,,,0.00,Wunderground v.1.15,2013-01-10 08:37:00,
2013-01-10 03:42:00,70.2,68.4,30.28,ESE,103,0.0,0.0,94,0.00,,,0.00,Wunderground v.1.15,2013-01-10 08:42:00,
2013-01-10 03:48:00,70.2,68.4,30.28,ESE,103,0.0,0.0,94,0.00,,,0.00,Wunderground v.1.15,2013-01-10 08:48:00,
2013-01-10 03:54:00,70.2,68.4,30.28,ESE,103,0.0,0.0,94,0.00,,,0.00,Wunderground v.1.15,2013-01-10 08:54:00,
2013-01-10 03:59:00,70.1,68.3,30.27,ESE,113,0.0,0.0,94,0.00,,,0.00,Wunderground v.1.15,2013-01-10 08:59:00,
2013-01-10 04:05:00,70.1,68.3,30.27,SSE,149,1.0,5.0,94,0.00,,,0.00,Wunderground v.1.15,2013-01-10 09:05:00,
2013-01-10 04:11:00,70.0,68.2,30.27,SSE,149,1.0,1.0,94,0.00,,,0.00,Wunderground v.1.15,2013-01-10 09:11:00,
2013-01-10 04:17:00,69.9,68.1,30.27,ESE,113,0.0,2.0,94,0.00,,,0.00,Wunderground v.1.15,2013-01-10 09:17:00,
2013-01-10 04:22:00,69.9,68.1,30.27,ESE,113,0.0,0.0,94,0.00,,,0.00,Wunderground v.1.15,2013-01-10 09:22:00,
2013-01-10 04:28:00,69.8,68.0,30.27,ESE,114,0.0,3.0,94,0.00,,,0.00,Wunderground v.1.15,2013-01-10 09:28:00,
2013-01-10 04:33:00,69.7,67.9,30.27,ESE,115,0.0,0.0,94,0.00,,,0.00,Wunderground v.1.15,2013-01-10 09:33:00,
2013-01-10 04:39:00,69.7,67.9,30.27,ESE,112,0.0,4.0,94,0.00,,,0.00,Wunderground v.1.15,2013-01-10 09:39:00,
2013-01-10 04:45:00,69.6,67.8,30.27,ESE,111,0.0,2.0,94,0.00,,,0.00,Wunderground v.1.15,2013-01-10 09:45:00,
2013-01-10 04:50:00,69.5,68.0,30.27,ESE,113,0.0,0.0,95,0.00,,,0.00,Wunderground v.1.15,2013-01-10 09:50:00,
2013-01-10 04:56:00,69.4,67.9,30.27,ESE,113,0.0,0.0,95,0.00,,,0.00,Wunderground v.1.15,2013-01-10 09:56:00,
2013-01-10 05:02:00,69.4,67.9,30.27,ESE,113,0.0,5.0,95,0.00,,,0.00,Wunderground v.1.15,2013-01-10 10:02:00,
2013-01-10 05:07:00,69.4,67.9,30.27,ESE,113,0.0,5.0,95,0.00,,,0.00,Wunderground v.1.15,2013-01-10 10:07:00,
2013-01-10 05:13:00,69.3,67.8,30.27,ESE,113,0.0,0.0,95,0.00,,,0.00,Wunderground v.1.15,2013-01-10 10:13:00,
2013-01-10 05:18:00,69.2,67.7,30.27,ESE,113,0.0,0.0,95,0.00,,,0.00,Wunderground v.1.15,2013-01-10 10:18:00,
2013-01-10 05:24:00,69.1,67.6,30.28,ESE,113,0.0,0.0,95,0.00,,,0.00,Wunderground v.1.15,2013-01-10 10:24:00,
2013-01-10 05:29:00,69.0,67.5,30.28,ESE,113,0.0,0.0,95,0.00,,,0.00,Wunderground v.1.15,2013-01-10 10:29:00,
2013-01-10 05:34:00,69.0,67.5,30.28,ESE,113,0.0,0.0,95,0.00,,,0.00,Wunderground v.1.15,2013-01-10 10:34:00,
2013-01-10 05:40:00,68.9,67.4,30.28,ESE,113,0.0,0.0,95,0.00,,,0.00,Wunderground v.1.15,2013-01-10 10:40:00,
2013-01-10 05:46:00,68.8,67.3,30.28,ESE,113,0.0,0.0,95,0.00,,,0.00,Wunderground v.1.15,2013-01-10 10:46:00,
2013-01-10 05:51:00,68.7,67.2,30.28,ESE,113,0.0,0.0,95,0.00,,,0.00,Wunderground v.1.15,2013-01-10 10:51:00,
2013-01-10 05:57:00,68.6,67.1,30.28,ESE,113,0.0,0.0,95,0.00,,,0.00,Wunderground v.1.15,2013-01-10 10:57:00,
2013-01-10 06:02:00,68.5,67.0,30.28,ESE,113,0.0,1.0,95,0.00,,,0.00,Wunderground v.1.15,2013-01-10 11:02:00,
2013-01-10 06:08:00,68.4,66.9,30.28,ESE,113,0.0,1.0,95,0.00,,,0.00,Wunderground v.1.15,2013-01-10 11:08:00,
2013-01-10 06:14:00,68.2,66.4,30.28,ESE,113,0.0,0.0,94,0.00,,,0.00,Wunderground v.1.15,2013-01-10 11:14:00,
2013-01-10 06:19:00,68.1,66.3,30.28,ESE,113,0.0,0.0,94,0.00,,,0.00,Wunderground v.1.15,2013-01-10 11:19:00,
2013-01-10 06:25:00,67.9,66.1,30.28,ESE,113,0.0,0.0,94,0.00,,,0.00,Wunderground v.1.15,2013-01-10 11:25:00,
2013-01-10 06:31:00,67.7,65.9,30.28,ESE,113,0.0,0.0,94,0.00,,,0.00,Wunderground v.1.15,2013-01-10 11:31:00,
2013-01-10 06:37:00,67.5,65.7,30.28,ESE,113,0.0,0.0,94,0.00,,,0.00,Wunderground v.1.15,2013-01-10 11:37:00,
2013-01-10 06:42:00,67.6,66.1,30.28,ESE,113,0.0,0.0,95,0.00,,,0.00,Wunderground v.1.15,2013-01-10 11:42:00,
2013-01-10 06:48:00,67.6,66.1,30.28,ESE,113,0.0,0.0,95,0.00,,,0.00,Wunderground v.1.15,2013-01-10 11:48:00,
2013-01-10 06:53:00,67.6,66.4,30.28,ESE,113,0.0,0.0,96,0.00,,,0.00,Wunderground v.1.15,2013-01-10 11:53:00,
2013-01-10 06:59:00,67.6,66.4,30.29,ESE,113,0.0,0.0,96,0.00,,,0.00,Wunderground v.1.15,2013-01-10 11:59:00,
2013-01-10 07:04:00,67.6,66.4,30.29,ESE,113,0.0,0.0,96,0.00,,,0.00,Wunderground v.1.15,2013-01-10 12:04:00,
2013-01-10 07:10:00,67.6,66.4,30.29,ESE,113,0.0,0.0,96,0.00,,,0.00,Wunderground v.1.15,2013-01-10 12:10:00,
2013-01-10 07:15:00,67.7,66.5,30.29,ESE,113,0.0,0.0,96,0.00,,,0.00,Wunderground v.1.15,2013-01-10 12:15:00,
2013-01-10 07:21:00,67.7,66.5,30.30,ESE,113,0.0,0.0,96,0.00,,,0.00,Wunderground v.1.15,2013-01-10 12:21:00,
2013-01-10 07:26:00,67.7,66.5,30.30,ESE,113,0.0,0.0,96,0.00,,,0.00,Wunderground v.1.15,2013-01-10 12:26:00,
2013-01-10 07:32:00,67.8,66.6,30.30,ESE,113,0.0,0.0,96,0.00,,,0.00,Wunderground v.1.15,2013-01-10 12:32:00,
2013-01-10 07:38:00,67.8,66.6,30.30,ESE,113,0.0,0.0,96,0.00,,,0.00,Wunderground v.1.15,2013-01-10 12:38:00,
2013-01-10 07:43:00,67.8,66.6,30.30,ESE,113,0.0,0.0,96,0.00,,,0.00,Wunderground v.1.15,2013-01-10 12:43:00,
2013-01-10 07:49:00,67.9,66.7,30.30,ESE,113,0.0,0.0,96,0.00,,,0.00,Wunderground v.1.15,2013-01-10 12:49:00,
2013-01-10 07:54:00,68.0,66.8,30.30,ESE,113,0.0,0.0,96,0.00,,,0.00,Wunderground v.1.15,2013-01-10 12:54:00,
2013-01-10 08:00:00,68.1,66.9,30.30,ESE,113,0.0,0.0,96,0.00,,,0.00,Wunderground v.1.15,2013-01-10 13:00:00,
2013-01-10 08:06:00,68.2,67.0,30.31,ESE,113,0.0,0.0,96,0.00,,,0.00,Wunderground v.1.15,2013-01-10 13:06:00,
2013-01-10 08:11:00,68.3,67.1,30.30,ESE,113,0.0,0.0,96,0.00,,,0.00,Wunderground v.1.15,2013-01-10 13:11:00,
2013-01-10 08:16:00,68.3,67.1,30.30,ESE,113,0.0,0.0,96,0.00,,,0.00,Wunderground v.1.15,2013-01-10 13:16:00,
2013-01-10 08:22:00,68.3,67.4,30.30,ESE,112,0.0,0.0,97,0.00,,,0.00,Wunderground v.1.15,2013-01-10 13:22:00,
2013-01-10 08:28:00,68.5,67.6,30.30,ESE,112,0.0,2.0,97,0.00,,,0.00,Wunderground v.1.15,2013-01-10 13:28:00,
2013-01-10 08:33:00,68.6,67.7,30.30,ESE,112,1.0,3.0,97,0.00,,,0.00,Wunderground v.1.15,2013-01-10 13:33:00,
2013-01-10 08:39:00,68.8,67.9,30.30,ESE,111,1.0,3.0,97,0.00,,,0.00,Wunderground v.1.15,2013-01-10 13:39:00,
2013-01-10 08:44:00,69.0,68.1,30.30,ESE,113,0.0,4.0,97,0.00,,,0.00,Wunderground v.1.15,2013-01-10 13:44:00,
2013-01-10 08:50:00,69.3,68.4,30.30,ESE,109,1.0,1.0,97,0.00,,,0.00,Wunderground v.1.15,2013-01-10 13:50:00,
2013-01-10 08:55:00,69.5,68.3,30.30,East,101,2.0,2.0,96,0.00,,,0.00,Wunderground v.1.15,2013-01-10 13:55:00,
2013-01-10 09:01:00,69.9,68.7,30.30,ESE,106,1.0,2.0,96,0.00,,,0.00,Wunderground v.1.15,2013-01-10 14:01:00,
2013-01-10 09:06:00,70.3,68.8,30.31,ESE,105,1.0,3.0,95,0.00,,,0.00,Wunderground v.1.15,2013-01-10 14:06:00,
2013-01-10 09:12:00,70.7,68.9,30.30,ESE,105,0.0,2.0,94,0.00,,,0.00,Wunderground v.1.15,2013-01-10 14:12:00,
2013-01-10 09:18:00,71.1,68.7,30.30,ESE,102,1.0,5.0,92,0.00,,,0.00,Wunderground v.1.15,2013-01-10 14:18:00,
2013-01-10 09:23:00,71.4,68.6,30.30,SE,125,1.0,3.0,91,0.00,,,0.00,Wunderground v.1.15,2013-01-10 14:23:00,
2013-01-10 09:29:00,71.8,68.7,30.30,ESE,111,1.0,3.0,90,0.00,,,0.00,Wunderground v.1.15,2013-01-10 14:29:00,
2013-01-10 09:34:00,72.2,68.8,30.30,ENE,74,0.0,4.0,89,0.00,,,0.00,Wunderground v.1.15,2013-01-10 14:34:00,
2013-01-10 09:40:00,72.5,68.7,30.30,ENE,77,0.0,0.0,88,0.00,,,0.00,Wunderground v.1.15,2013-01-10 14:40:00,
2013-01-10 09:46:00,72.8,69.0,30.30,ENE,74,0.0,0.0,88,0.00,,,0.00,Wunderground v.1.15,2013-01-10 14:46:00,
2013-01-10 09:51:00,73.1,69.3,30.30,East,96,0.0,2.0,88,0.00,,,0.00,Wunderground v.1.15,2013-01-10 14:51:00,
2013-01-10 09:57:00,73.4,69.3,30.30,ESE,119,1.0,3.0,87,0.00,,,0.00,Wunderground v.1.15,2013-01-10 14:57:00,
2013-01-10 10:03:00,73.7,69.2,30.29,ENE,72,2.0,6.0,86,0.00,,,0.00,Wunderground v.1.15,2013-01-10 15:03:00,
2013-01-10 10:08:00,74.1,69.3,30.29,ESE,123,2.0,6.0,85,0.00,,,0.00,Wunderground v.1.15,2013-01-10 15:08:00,
2013-01-10 10:14:00,74.4,69.2,30.28,ESE,115,2.0,4.0,84,0.00,,,0.00,Wunderground v.1.15,2013-01-10 15:14:00,
2013-01-10 10:19:00,74.7,69.5,30.28,ESE,109,3.0,5.0,84,0.00,,,0.00,Wunderground v.1.15,2013-01-10 15:19:00,
2013-01-10 10:25:00,75.0,69.8,30.28,ESE,123,2.0,9.0,84,0.00,,,0.00,Wunderground v.1.15,2013-01-10 15:25:00,
2013-01-10 10:30:00,75.5,69.6,30.27,ESE,117,2.0,4.0,82,0.00,,,0.00,Wunderground v.1.15,2013-01-10 15:30:00,
2013-01-10 10:36:00,75.8,69.9,30.27,SE,126,3.0,5.0,82,0.00,,,0.00,Wunderground v.1.15,2013-01-10 15:36:00,
2013-01-10 10:42:00,76.1,69.8,30.27,South,191,3.0,5.0,81,0.00,,,0.00,Wunderground v.1.15,2013-01-10 15:42:00,
2013-01-10 10:48:00,76.4,69.8,30.26,SE,144,2.0,5.0,80,0.00,,,0.00,Wunderground v.1.15,2013-01-10 15:48:00,
2013-01-10 10:54:00,76.9,69.9,30.26,ENE,76,2.0,4.0,79,0.00,,,0.00,Wunderground v.1.15,2013-01-10 15:54:00,
2013-01-10 10:59:00,77.2,69.0,30.26,ESE,123,2.0,4.0,76,0.00,,,0.00,Wunderground v.1.15,2013-01-10 15:59:00,
2013-01-10 11:05:00,77.4,69.2,30.26,SSE,150,3.0,6.0,76,0.00,,,0.00,Wunderground v.1.15,2013-01-10 16:05:00,
2013-01-10 11:11:00,77.7,69.1,30.25,ESE,117,3.0,5.0,75,0.00,,,0.00,Wunderground v.1.15,2013-01-10 16:11:00,
2013-01-10 11:16:00,77.8,68.8,30.25,ESE,109,3.0,9.0,74,0.00,,,0.00,Wunderground v.1.15,2013-01-10 16:16:00,
2013-01-10 11:21:00,78.1,68.3,30.25,East,91,3.0,6.0,72,0.00,,,0.00,Wunderground v.1.15,2013-01-10 16:21:00,
2013-01-10 11:27:00,78.2,68.0,30.25,ESE,118,5.0,10.0,71,0.00,,,0.00,Wunderground v.1.15,2013-01-10 16:27:00,
2013-01-10 11:33:00,78.2,67.6,30.25,ENE,76,5.0,6.0,70,0.00,,,0.00,Wunderground v.1.15,2013-01-10 16:33:00,
2013-01-10 11:39:00,78.6,67.6,30.24,ESE,109,4.0,6.0,69,0.00,,,0.00,Wunderground v.1.15,2013-01-10 16:39:00,
2013-01-10 11:45:00,78.8,67.3,30.24,SSE,150,3.0,6.0,68,0.00,,,0.00,Wunderground v.1.15,2013-01-10 16:45:00,
2013-01-10 11:51:00,79.1,67.2,30.24,ENE,59,3.0,4.0,67,0.00,,,0.00,Wunderground v.1.15,2013-01-10 16:51:00,
2013-01-10 11:56:00,79.3,67.4,30.23,East,97,4.0,10.0,67,0.00,,,0.00,Wunderground v.1.15,2013-01-10 16:56:00,
2013-01-10 12:01:00,79.5,67.1,30.23,ESE,109,3.0,6.0,66,0.00,,,0.00,Wunderground v.1.15,2013-01-10 17:01:00,
2013-01-10 12:07:00,79.6,66.8,30.23,ESE,110,3.0,6.0,65,0.00,,,0.00,Wunderground v.1.15,2013-01-10 17:07:00,
2013-01-10 12:12:00,79.8,67.0,30.23,East,95,3.0,5.0,65,0.00,,,0.00,Wunderground v.1.15,2013-01-10 17:12:00,
2013-01-10 12:18:00,80.0,67.6,30.23,East,92,3.0,5.0,66,0.00,,,0.00,Wunderground v.1.15,2013-01-10 17:18:00,
2013-01-10 12:23:00,80.2,67.4,30.23,SSE,167,4.0,4.0,65,0.00,,,0.00,Wunderground v.1.15,2013-01-10 17:23:00,
2013-01-10 12:29:00,80.3,67.0,30.23,East,82,4.0,7.0,64,0.00,,,0.00,Wunderground v.1.15,2013-01-10 17:29:00,
2013-01-10 12:34:00,80.2,67.4,30.23,ESE,115,4.0,6.0,65,0.00,,,0.00,Wunderground v.1.15,2013-01-10 17:34:00,
2013-01-10 12:40:00,80.6,66.8,30.23,East,98,3.0,3.0,63,0.00,,,0.00,Wunderground v.1.15,2013-01-10 17:40:00,
2013-01-10 12:45:00,80.7,66.9,30.23,East,92,3.0,7.0,63,0.00,,,0.00,Wunderground v.1.15,2013-01-10 17:45:00,
2013-01-10 12:51:00,80.8,66.6,30.23,East,90,3.0,4.0,62,0.00,,,0.00,Wunderground v.1.15,2013-01-10 17:51:00,
2013-01-10 12:56:00,80.9,66.7,30.22,ESE,122,3.0,7.0,62,0.00,,,0.00,Wunderground v.1.15,2013-01-10 17:56:00,
2013-01-10 13:02:00,81.1,66.8,30.22,SE,138,2.0,12.0,62,0.00,,,0.00,Wunderground v.1.15,2013-01-10 18:02:00,
2013-01-10 13:07:00,81.7,67.4,30.22,ESE,114,1.0,12.0,62,0.00,,,0.00,Wunderground v.1.15,2013-01-10 18:07:00,
2013-01-10 13:13:00,82.0,66.7,30.22,ESE,122,2.0,3.0,60,0.00,,,0.00,Wunderground v.1.15,2013-01-10 18:13:00,
2013-01-10 13:18:00,82.1,66.8,30.22,East,82,1.0,3.0,60,0.00,,,0.00,Wunderground v.1.15,2013-01-10 18:18:00,
2013-01-10 13:24:00,82.2,66.4,30.22,ENE,76,1.0,3.0,59,0.00,,,0.00,Wunderground v.1.15,2013-01-10 18:24:00,
2013-01-10 13:29:00,82.3,67.0,30.22,ENE,62,1.0,3.0,60,0.00,,,0.00,Wunderground v.1.15,2013-01-10 18:29:00,
2013-01-10 13:35:00,82.1,66.4,30.22,East,96,1.0,3.0,59,0.00,,,0.00,Wunderground v.1.15,2013-01-10 18:35:00,
2013-01-10 13:41:00,82.2,66.0,30.22,SE,128,1.0,4.0,58,0.00,,,0.00,Wunderground v.1.15,2013-01-10 18:41:00,
2013-01-10 13:46:00,82.0,65.8,30.22,East,90,1.0,5.0,58,0.00,,,0.00,Wunderground v.1.15,2013-01-10 18:46:00,
2013-01-10 13:52:00,81.8,66.1,30.22,East,94,2.0,3.0,59,0.00,,,0.00,Wunderground v.1.15,2013-01-10 18:52:00,
2013-01-10 13:57:00,81.9,65.7,30.22,East,93,1.0,6.0,58,0.00,,,0.00,Wunderground v.1.15,2013-01-10 18:57:00,
2013-01-10 14:02:00,82.2,65.4,30.22,ESE,108,2.0,9.0,57,0.00,,,0.00,Wunderground v.1.15,2013-01-10 19:02:00,
2013-01-10 14:08:00,82.3,65.5,30.22,ESE,122,1.0,9.0,57,0.00,,,0.00,Wunderground v.1.15,2013-01-10 19:08:00,
2013-01-10 14:14:00,82.3,65.5,30.22,ESE,111,2.0,4.0,57,0.00,,,0.00,Wunderground v.1.15,2013-01-10 19:14:00,
2013-01-10 14:20:00,82.3,66.0,30.22,East,101,1.0,1.0,58,0.00,,,0.00,Wunderground v.1.15,2013-01-10 19:20:00,
2013-01-10 14:26:00,82.6,65.8,30.22,ESE,112,1.0,3.0,57,0.00,,,0.00,Wunderground v.1.15,2013-01-10 19:26:00,
2013-01-10 14:31:00,82.7,65.4,30.22,East,83,1.0,3.0,56,0.00,,,0.00,Wunderground v.1.15,2013-01-10 19:31:00,
2013-01-10 14:37:00,82.7,65.9,30.22,East,86,2.0,3.0,57,0.00,,,0.00,Wunderground v.1.15,2013-01-10 19:37:00,
2013-01-10 14:42:00,82.9,65.6,30.22,East,93,1.0,4.0,56,0.00,,,0.00,Wunderground v.1.15,2013-01-10 19:42:00,
2013-01-10 14:48:00,83.2,65.9,30.22,SE,129,1.0,4.0,56,0.00,,,0.00,Wunderground v.1.15,2013-01-10 19:48:00,
2013-01-10 14:54:00,83.3,65.4,30.23,ESE,107,1.0,4.0,55,0.00,,,0.00,Wunderground v.1.15,2013-01-10 19:54:00,
2013-01-10 14:59:00,83.1,64.7,30.22,ESE,121,2.0,2.0,54,0.00,,,0.00,Wunderground v.1.15,2013-01-10 19:59:00,
2013-01-10 15:05:00,82.7,65.4,30.23,ESE,119,1.0,9.0,56,0.00,,,0.00,Wunderground v.1.15,2013-01-10 20:05:00,
2013-01-10 15:11:00,82.5,65.2,30.23,ESE,119,0.0,0.0,56,0.00,,,0.00,Wunderground v.1.15,2013-01-10 20:11:00,
2013-01-10 15:16:00,82.3,65.0,30.23,ESE,118,0.0,0.0,56,0.00,,,0.00,Wunderground v.1.15,2013-01-10 20:16:00,
2013-01-10 15:23:00,82.0,64.8,30.23,ESE,119,0.0,0.0,56,0.00,,,0.00,Wunderground v.1.15,2013-01-10 20:23:00,
2013-01-10 15:28:00,81.9,65.2,30.23,ESE,118,0.0,2.0,57,0.00,,,0.00,Wunderground v.1.15,2013-01-10 20:28:00,
2013-01-10 15:33:00,82.3,65.5,30.23,ESE,119,0.0,0.0,57,0.00,,,0.00,Wunderground v.1.15,2013-01-10 20:33:00,
2013-01-10 15:39:00,82.5,65.7,30.23,ESE,118,0.0,1.0,57,0.00,,,0.00,Wunderground v.1.15,2013-01-10 20:39:00,
2013-01-10 15:45:00,82.6,65.3,30.23,ESE,105,1.0,2.0,56,0.00,,,0.00,Wunderground v.1.15,2013-01-10 20:45:00,
2013-01-10 15:50:00,82.8,65.0,30.23,ESE,121,1.0,2.0,55,0.00,,,0.00,Wunderground v.1.15,2013-01-10 20:50:00,
2013-01-10 15:56:00,82.6,64.8,30.23,ESE,113,2.0,3.0,55,0.00,,,0.00,Wunderground v.1.15,2013-01-10 20:56:00,
2013-01-10 16:01:00,82.5,65.2,30.23,ESE,122,1.0,5.0,56,0.00,,,0.00,Wunderground v.1.15,2013-01-10 21:01:00,
2013-01-10 16:06:00,82.4,65.6,30.23,ESE,109,0.0,5.0,57,0.00,,,0.00,Wunderground v.1.15,2013-01-10 21:06:00,
2013-01-10 16:12:00,82.1,65.4,30.23,ESE,109,0.0,0.0,57,0.00,,,0.00,Wunderground v.1.15,2013-01-10 21:12:00,
2013-01-10 16:17:00,82.0,65.8,30.23,ESE,109,0.0,0.0,58,0.00,,,0.00,Wunderground v.1.15,2013-01-10 21:17:00,
2013-01-10 16:23:00,81.9,65.7,30.23,SE,130,0.0,3.0,58,0.00,,,0.00,Wunderground v.1.15,2013-01-10 21:23:00,
2013-01-10 16:29:00,81.6,65.4,30.23,SE,126,1.0,3.0,58,0.00,,,0.00,Wunderground v.1.15,2013-01-10 21:29:00,
2013-01-10 16:34:00,81.2,66.0,30.23,East,92,1.0,1.0,60,0.00,,,0.00,Wunderground v.1.15,2013-01-10 21:34:00,
2013-01-10 16:40:00,81.0,65.8,30.23,East,95,1.0,1.0,60,0.00,,,0.00,Wunderground v.1.15,2013-01-10 21:40:00,
2013-01-10 16:45:00,80.8,66.1,30.23,East,98,0.0,2.0,61,0.00,,,0.00,Wunderground v.1.15,2013-01-10 21:45:00,
2013-01-10 16:51:00,80.5,65.8,30.23,ESE,109,1.0,2.0,61,0.00,,,0.00,Wunderground v.1.15,2013-01-10 21:51:00,
2013-01-10 16:57:00,80.3,66.1,30.23,ESE,110,1.0,3.0,62,0.00,,,0.00,Wunderground v.1.15,2013-01-10 21:57:00,
2013-01-10 17:02:00,80.2,66.0,30.23,ESE,113,0.0,7.0,62,0.00,,,0.00,Wunderground v.1.15,2013-01-10 22:02:00,
2013-01-10 17:08:00,80.0,66.3,30.23,ESE,110,0.0,7.0,63,0.00,,,0.00,Wunderground v.1.15,2013-01-10 22:08:00,
2013-01-10 17:13:00,79.7,66.0,30.23,ESE,110,0.0,3.0,63,0.00,,,0.00,Wunderground v.1.15,2013-01-10 22:13:00,
2013-01-10 17:19:00,79.4,66.2,30.23,ESE,110,0.0,0.0,64,0.00,,,0.00,Wunderground v.1.15,2013-01-10 22:19:00,
2013-01-10 17:24:00,79.1,65.9,30.23,ESE,110,0.0,0.0,64,0.00,,,0.00,Wunderground v.1.15,2013-01-10 22:24:00,
2013-01-10 17:30:00,78.8,66.0,30.23,ESE,110,0.0,0.0,65,0.00,,,0.00,Wunderground v.1.15,2013-01-10 22:30:00,
2013-01-10 17:35:00,78.5,65.8,30.23,ESE,110,0.0,0.0,65,0.00,,,0.00,Wunderground v.1.15,2013-01-10 22:35:00,
2013-01-10 17:41:00,78.1,65.8,30.23,ESE,110,0.0,0.0,66,0.00,,,0.00,Wunderground v.1.15,2013-01-10 22:41:00,
2013-01-10 17:47:00,77.8,65.5,30.23,ESE,110,0.0,0.0,66,0.00,,,0.00,Wunderground v.1.15,2013-01-10 22:47:00,
2013-01-10 17:53:00,77.6,65.8,30.23,ESE,110,0.0,0.0,67,0.00,,,0.00,Wunderground v.1.15,2013-01-10 22:53:00,
2013-01-10 17:59:00,77.3,65.9,30.23,ESE,110,0.0,0.0,68,0.00,,,0.00,Wunderground v.1.15,2013-01-10 22:59:00,
2013-01-10 18:05:00,77.0,65.6,30.24,ESE,110,0.0,4.0,68,0.00,,,0.00,Wunderground v.1.15,2013-01-10 23:05:00,
2013-01-10 18:10:00,76.8,65.4,30.24,ESE,110,0.0,0.0,68,0.00,,,0.00,Wunderground v.1.15,2013-01-10 23:10:00,
2013-01-10 18:16:00,76.5,65.6,30.23,ESE,110,0.0,0.0,69,0.00,,,0.00,Wunderground v.1.15,2013-01-10 23:16:00,
2013-01-10 18:21:00,76.4,65.5,30.24,ESE,110,0.0,0.0,69,0.00,,,0.00,Wunderground v.1.15,2013-01-10 23:21:00,
2013-01-10 18:27:00,76.2,65.7,30.24,ESE,110,0.0,0.0,70,0.00,,,0.00,Wunderground v.1.15,2013-01-10 23:27:00,
2013-01-10 18:33:00,76.1,65.6,30.24,ESE,110,0.0,0.0,70,0.00,,,0.00,Wunderground v.1.15,2013-01-10 23:33:00,
2013-01-10 18:38:00,75.9,65.4,30.23,ESE,110,0.0,0.0,70,0.00,,,0.00,Wunderground v.1.15,2013-01-10 23:38:00,
2013-01-10 18:45:00,75.8,65.3,30.24,ESE,110,0.0,0.0,70,0.00,,,0.00,Wunderground v.1.15,2013-01-10 23:45:00,
2013-01-10 18:50:00,75.7,65.2,30.24,ESE,110,0.0,0.0,70,0.00,,,0.00,Wunderground v.1.15,2013-01-10 23:50:00,
2013-01-10 18:56:00,75.6,65.1,30.24,ESE,110,0.0,0.0,70,0.00,,,0.00,Wunderground v.1.15,2013-01-10 23:56:00,
2013-01-10 19:02:00,75.5,65.4,30.24,ESE,110,0.0,0.0,71,0.00,,,0.00,Wunderground v.1.15,2013-01-11 00:02:00,
2013-01-10 19:08:00,75.5,65.4,30.24,ESE,110,0.0,0.0,71,0.00,,,0.00,Wunderground v.1.15,2013-01-11 00:08:00,
2013-01-10 19:13:00,75.5,65.4,30.24,ESE,110,0.0,0.0,71,0.00,,,0.00,Wunderground v.1.15,2013-01-11 00:13:00,
2013-01-10 19:19:00,75.4,65.7,30.24,ESE,110,0.0,0.0,72,0.00,,,0.00,Wunderground v.1.15,2013-01-11 00:19:00,
2013-01-10 19:24:00,75.4,65.7,30.24,ESE,111,0.0,0.0,72,0.00,,,0.00,Wunderground v.1.15,2013-01-11 00:24:00,
2013-01-10 19:30:00,75.5,66.2,30.24,ESE,106,0.0,0.0,73,0.00,,,0.00,Wunderground v.1.15,2013-01-11 00:30:00,
2013-01-10 19:35:00,75.5,66.2,30.24,ESE,111,0.0,0.0,73,0.00,,,0.00,Wunderground v.1.15,2013-01-11 00:35:00,
2013-01-10 19:41:00,75.5,66.6,30.24,ESE,110,0.0,0.0,74,0.00,,,0.00,Wunderground v.1.15,2013-01-11 00:41:00,
2013-01-10 19:48:00,75.4,66.5,30.25,ESE,110,0.0,0.0,74,0.00,,,0.00,Wunderground v.1.15,2013-01-11 00:48:00,
2013-01-10 19:54:00,75.2,66.7,30.25,ESE,112,0.0,0.0,75,0.00,,,0.00,Wunderground v.1.15,2013-01-11 00:54:00,
2013-01-10 20:00:00,75.0,66.5,30.25,ESE,112,0.0,0.0,75,0.00,,,0.00,Wunderground v.1.15,2013-01-11 01:00:00,
2013-01-10 20:05:00,74.7,66.6,30.25,ESE,120,0.0,0.0,76,0.00,,,0.00,Wunderground v.1.15,2013-01-11 01:05:00,
2013-01-10 20:11:00,74.5,66.4,30.25,ESE,121,0.0,0.0,76,0.00,,,0.00,Wunderground v.1.15,2013-01-11 01:11:00,
2013-01-10 20:16:00,74.3,66.6,30.25,ESE,122,0.0,0.0,77,0.00,,,0.00,Wunderground v.1.15,2013-01-11 01:16:00,
2013-01-10 20:23:00,74.0,66.3,30.26,ESE,121,0.0,0.0,77,0.00,,,0.00,Wunderground v.1.15,2013-01-11 01:23:00,
2013-01-10 20:29:00,73.8,66.1,30.26,ESE,122,0.0,0.0,77,0.00,,,0.00,Wunderground v.1.15,2013-01-11 01:29:00,
2013-01-10 20:35:00,73.7,66.4,30.26,SE,146,0.0,0.0,78,0.00,,,0.00,Wunderground v.1.15,2013-01-11 01:35:00,
2013-01-10 20:40:00,73.5,66.2,30.26,SSW,198,0.0,0.0,78,0.00,,,0.00,Wunderground v.1.15,2013-01-11 01:40:00,
2013-01-10 20:46:00,73.4,66.1,30.26,SE,131,0.0,0.0,78,0.00,,,0.00,Wunderground v.1.15,2013-01-11 01:46:00,
2013-01-10 20:52:00,73.3,66.4,30.26,SE,130,0.0,0.0,79,0.00,,,0.00,Wunderground v.1.15,2013-01-11 01:52:00,
2013-01-10 20:57:00,73.1,66.2,30.27,SE,129,0.0,0.0,79,0.00,,,0.00,Wunderground v.1.15,2013-01-11 01:57:00,
2013-01-10 21:03:00,72.9,66.0,30.27,SE,134,0.0,0.0,79,0.00,,,0.00,Wunderground v.1.15,2013-01-11 02:03:00,
2013-01-10 21:08:00,72.8,65.9,30.27,SE,133,0.0,0.0,79,0.00,,,0.00,Wunderground v.1.15,2013-01-11 02:08:00,
2013-01-10 21:13:00,72.7,65.8,30.27,SE,133,0.0,1.0,79,0.00,,,0.00,Wunderground v.1.15,2013-01-11 02:13:00,
2013-01-10 21:19:00,72.6,66.1,30.27,SE,133,0.0,0.0,80,0.00,,,0.00,Wunderground v.1.15,2013-01-11 02:19:00,
2013-01-10 21:24:00,72.5,66.0,30.27,SE,132,0.0,0.0,80,0.00,,,0.00,Wunderground v.1.15,2013-01-11 02:24:00,
2013-01-10 21:30:00,72.3,66.1,30.27,SE,132,0.0,0.0,81,0.00,,,0.00,Wunderground v.1.15,2013-01-11 02:30:00,
2013-01-10 21:36:00,72.2,66.0,30.27,SE,132,0.0,0.0,81,0.00,,,0.00,Wunderground v.1.15,2013-01-11 02:36:00,
2013-01-10 21:41:00,72.1,65.9,30.27,SE,132,0.0,1.0,81,0.00,,,0.00,Wunderground v.1.15,2013-01-11 02:41:00,
2013-01-10 21:47:00,71.9,65.8,30.28,SE,132,0.0,1.0,81,0.00,,,0.00,Wunderground v.1.15,2013-01-11 02:47:00,
2013-01-10 21:53:00,71.8,65.7,30.28,SE,132,0.0,0.0,81,0.00,,,0.00,Wunderground v.1.15,2013-01-11 02:53:00,
2013-01-10 21:59:00,71.6,65.5,30.28,SE,132,0.0,0.0,81,0.00,,,0.00,Wunderground v.1.15,2013-01-11 02:59:00,
2013-01-10 22:04:00,71.5,65.4,30.27,SE,132,0.0,1.0,81,0.00,,,0.00,Wunderground v.1.15,2013-01-11 03:04:00,
2013-01-10 22:10:00,71.4,65.3,30.27,SE,132,0.0,0.0,81,0.00,,,0.00,Wunderground v.1.15,2013-01-11 03:10:00,
2013-01-10 22:16:00,71.3,65.2,30.28,ESE,119,0.0,6.0,81,0.00,,,0.00,Wunderground v.1.15,2013-01-11 03:16:00,
2013-01-10 22:21:00,71.2,65.1,30.27,ESE,115,0.0,0.0,81,0.00,,,0.00,Wunderground v.1.15,2013-01-11 03:21:00,
2013-01-10 22:27:00,71.2,65.1,30.28,ESE,116,0.0,0.0,81,0.00,,,0.00,Wunderground v.1.15,2013-01-11 03:27:00,
2013-01-10 22:33:00,71.1,65.0,30.28,ESE,116,0.0,0.0,81,0.00,,,0.00,Wunderground v.1.15,2013-01-11 03:33:00,
2013-01-10 22:39:00,71.0,64.5,30.28,ESE,116,0.0,0.0,80,0.00,,,0.00,Wunderground v.1.15,2013-01-11 03:39:00,
2013-01-10 22:45:00,70.9,64.4,30.28,ESE,116,0.0,0.0,80,0.00,,,0.00,Wunderground v.1.15,2013-01-11 03:45:00,
2013-01-10 22:51:00,70.9,64.4,30.29,ESE,115,0.0,1.0,80,0.00,,,0.00,Wunderground v.1.15,2013-01-11 03:51:00,
2013-01-10 22:56:00,70.8,64.3,30.29,ESE,115,0.0,1.0,80,0.00,,,0.00,Wunderground v.1.15,2013-01-11 03:56:00,
2013-01-10 23:02:00,70.8,64.3,30.29,ESE,115,0.0,1.0,80,0.00,,,0.00,Wunderground v.1.15,2013-01-11 04:02:00,
2013-01-10 23:08:00,70.7,64.2,30.29,ESE,115,0.0,1.0,80,0.00,,,0.00,Wunderground v.1.15,2013-01-11 04:08:00,
2013-01-10 23:14:00,70.7,64.2,30.29,ESE,115,0.0,0.0,80,0.00,,,0.00,Wunderground v.1.15,2013-01-11 04:14:00,
2013-01-10 23:19:00,70.6,64.5,30.29,ESE,115,0.0,0.0,81,0.00,,,0.00,Wunderground v.1.15,2013-01-11 04:19:00,
2013-01-10 23:25:00,70.5,64.4,30.29,ESE,115,0.0,0.0,81,0.00,,,0.00,Wunderground v.1.15,2013-01-11 04:25:00,
2013-01-10 23:31:00,70.4,64.3,30.29,ESE,115,0.0,0.0,81,0.00,,,0.00,Wunderground v.1.15,2013-01-11 04:31:00,
2013-01-10 23:37:00,70.3,64.2,30.29,ESE,115,0.0,0.0,81,0.00,,,0.00,Wunderground v.1.15,2013-01-11 04:37:00,
2013-01-10 23:42:00,70.2,64.4,30.29,ESE,115,0.0,0.0,82,0.00,,,0.00,Wunderground v.1.15,2013-01-11 04:42:00,
2013-01-10 23:48:00,70.0,64.2,30.28,ESE,115,0.0,0.0,82,0.00,,,0.00,Wunderground v.1.15,2013-01-11 04:48:00,
2013-01-10 23:54:00,69.9,64.2,30.29,ESE,115,0.0,0.0,82,0.00,,,0.00,Wunderground v.1.15,2013-01-11 04:54:00,
2013-01-10 23:59:00,69.7,64.3,30.28,ESE,115,0.0,0.0,83,0.00,,,0.00,Wunderground v.1.15,2013-01-11 04:59:00,